Almirante Gago Coutinho — CTHA — position and weather

sailwx.info

Track history (hours):
 
Tides and Currents Weather Stations Pressure Air Temp Water Temp Dewpoint Dewpoint Depression Visibility Wind Speed Wind Dir Waves Ship Positions

Oceanographic research ship Almirante Gago Coutinho (Portugal)

Detailed information on ship capabilities available from University of Delaware's Ocean Information Center.

Last reported at 2018-Nov-04 09:32 UTC. Time now 2018-Dec-12 02:36 UTC.
Position N 38°40' W 009°09'.
Warning: this ship's position is 37 days out of date.

Length 69 m; draft 5.9 m.

Type: Military. MMSI: 263145000.

Date/timePositionNaut miles runAvg speedWind from/ knotsBaromVisibWave heightAir tempDewpointWater temp
2018-Nov-04 09:32N 38°40' W 009°09'0 0.0
2018-Nov-04 09:30N 38°40' W 009°09'0 0.0
2018-Nov-04 09:03N 38°40' W 009°09'0 0.0
2018-Nov-04 09:00N 38°40' W 009°09'0 0.0
2018-Nov-04 08:30N 38°40' W 009°09'0 0.0
2018-Nov-04 08:03N 38°40' W 009°09'0 0.0
2018-Nov-04 08:00N 38°40' W 009°09'0 0.0
2018-Nov-04 07:30N 38°40' W 009°09'0 0.0
2018-Nov-04 07:03N 38°40' W 009°09'0 0.0
2018-Nov-04 07:00N 38°40' W 009°09'0 0.0
2018-Nov-04 06:30N 38°40' W 009°09'0 0.0
2018-Nov-04 06:03N 38°40' W 009°09'0 0.0
2018-Nov-04 06:00N 38°40' W 009°09'0 0.0
2018-Nov-04 05:30N 38°40' W 009°09'0 0.0
2018-Nov-04 05:03N 38°40' W 009°09'0 0.0
2018-Nov-04 05:00N 38°40' W 009°09'0 0.0
2018-Nov-04 04:30N 38°40' W 009°09'0 0.0
2018-Nov-04 04:03N 38°40' W 009°09'0 0.0
2018-Nov-04 04:00N 38°40' W 009°09'0 0.0
2018-Nov-04 03:30N 38°40' W 009°09'0 0.0
2018-Nov-04 03:03N 38°40' W 009°09'0 0.0
2018-Nov-04 03:00N 38°40' W 009°09'0 0.0
2018-Nov-04 02:30N 38°40' W 009°09'0 0.0
2018-Nov-04 02:03N 38°40' W 009°09'0 0.0
2018-Nov-04 02:00N 38°40' W 009°09'0 0.0
2018-Nov-04 01:30N 38°40' W 009°09'0 0.0
2018-Nov-04 01:03N 38°40' W 009°09'0 0.0
2018-Nov-04 01:00N 38°40' W 009°09'0 0.0
2018-Nov-04 00:30N 38°40' W 009°09'0 0.0
2018-Nov-04 00:03N 38°40' W 009°09'0 0.0
2018-Nov-04 00:00N 38°40' W 009°09'0 0.0
2018-Nov-03 23:30N 38°40' W 009°09'0 0.0
2018-Nov-03 23:03N 38°40' W 009°09'0 0.0
2018-Nov-03 23:00N 38°40' W 009°09'0 0.0
2018-Nov-03 22:30N 38°40' W 009°09'0 0.0
2018-Nov-03 20:30N 38°40' W 009°09'0 0.0
2018-Nov-02 11:06N 38°40' W 009°09'0 0.0
2018-Nov-02 11:03N 38°40' W 009°09'0 0.0
2018-Nov-02 11:00N 38°40' W 009°09'0 0.4
2018-Nov-02 10:30N 38°40' W 009°09'0 0.5
2018-Nov-02 10:04N 38°40' W 009°09'0 0.0
2018-Nov-02 10:01N 38°40' W 009°09'0 0.0
2018-Nov-02 09:31N 38°40' W 009°09'  
2018-Oct-30 08:18N 38°40' W 009°09'0 0.0
2018-Oct-30 08:03N 38°40' W 009°09'0 0.1
2018-Oct-30 08:00N 38°40' W 009°09'0 0.9
2018-Oct-30 07:30N 38°40' W 009°08'1 2.7
2018-Oct-30 07:03N 38°42' W 009°09'0 6.3
2018-Oct-30 07:00N 38°42' W 009°09'4 7.7
2018-Oct-30 06:29N 38°41' W 009°14'3 8.0
2018-Oct-30 06:03N 38°40' W 009°19'0 8.9
2018-Oct-30 06:00N 38°40' W 009°19'4 7.9
2018-Oct-30 05:30N 38°37' W 009°22'3 5.8
2018-Oct-30 05:04N 38°35' W 009°25'0 5.3
2018-Oct-30 05:00N 38°36' W 009°25'2 4.6
2018-Oct-30 04:31N 38°38' W 009°25'1 3.1
2018-Oct-30 04:03N 38°39' W 009°25'0 1.3
2018-Oct-30 04:00N 38°39' W 009°25'1 1.3
2018-Oct-30 03:30N 38°40' W 009°25'1 1.6
2018-Oct-30 03:03N 38°39' W 009°25'0 2.7
2018-Oct-30 03:01N 38°39' W 009°25'0 0.5
2018-Oct-30 02:31N 38°39' W 009°25'1 1.3
2018-Oct-30 02:04N 38°40' W 009°25'0 3.7
2018-Oct-30 02:01N 38°40' W 009°25'1 1.0
2018-Oct-30 01:30N 38°39' W 009°25'1 1.7
2018-Oct-30 01:04N 38°40' W 009°25'0 1.4
2018-Oct-30 01:00N 38°40' W 009°25'1 1.1
2018-Oct-30 00:30N 38°40' W 009°25'1 1.3
2018-Oct-30 00:04N 38°39' W 009°25'0 3.0
2018-Oct-30 00:01N 38°39' W 009°25'2 4.3
2018-Oct-29 23:30N 38°39' W 009°28'2 5.2
2018-Oct-29 23:03N 38°41' W 009°30'0 5.9
2018-Oct-29 23:00N 38°41' W 009°31'3 5.6
2018-Oct-29 22:30N 38°43' W 009°33'3 6.1
2018-Oct-29 22:03N 38°46' W 009°33'0 6.8
2018-Oct-29 22:01N 38°46' W 009°33'3 6.9
2018-Oct-29 21:31N 38°50' W 009°34'3 6.8
2018-Oct-29 21:03N 38°53' W 009°34'0 6.6
2018-Oct-29 21:00N 38°53' W 009°34'3 6.7
2018-Oct-29 20:30N 38°56' W 009°35'3 6.5
2018-Oct-29 20:04N 38°59' W 009°35'0 6.8
2018-Oct-29 20:00N 38°60' W 009°35'3 6.4
2018-Oct-29 19:30N 39°03' W 009°35'3 6.3
2018-Oct-29 19:04N 39°06' W 009°35'0 6.1
2018-Oct-29 19:01N 39°06' W 009°35'3 6.0
2018-Oct-29 18:30N 39°09' W 009°36'3 6.0
2018-Oct-29 18:04N 39°12' W 009°36'0 6.2
2018-Oct-29 18:01N 39°12' W 009°36'3 6.5
2018-Oct-29 17:30N 39°15' W 009°36'3 6.5
2018-Oct-29 17:04N 39°18' W 009°36'0 6.6
2018-Oct-29 17:00N 39°18' W 009°36'3 6.8
2018-Oct-29 16:30N 39°22' W 009°36'3 6.9
2018-Oct-29 16:03N 39°25' W 009°36'0 6.8
2018-Oct-29 16:00N 39°25' W 009°36'3 6.1
2018-Oct-29 15:28N 39°29' W 009°36'1 1.2
2018-Oct-29 14:59N 39°29' W 009°36'1 1.7
2018-Oct-29 14:29N 39°30' W 009°36'1 0.5
2018-Oct-29 11:51N 39°29' W 009°38'1 3.4
2018-Oct-29 11:29N 39°31' W 009°38'105 6.1
2018-Oct-28 18:09N 41°07' W 008°44'1 7.4
2018-Oct-28 18:03N 41°08' W 008°43'0 7.4
2018-Oct-28 18:00N 41°08' W 008°43'3 6.1
2018-Oct-28 17:30N 41°11' W 008°42'0 0.8
2018-Oct-28 17:02N 41°11' W 008°42'0 0.0
2018-Oct-28 16:59N 41°11' W 008°42'0 0.0
2018-Oct-28 16:29N 41°11' W 008°42'0 0.0
2018-Oct-28 16:02N 41°11' W 008°42'0 0.0
2018-Oct-28 15:59N 41°11' W 008°42'0 0.0
2018-Oct-28 15:29N 41°11' W 008°42'0 0.0
2018-Oct-28 15:02N 41°11' W 008°42'0 0.0
2018-Oct-28 14:59N 41°11' W 008°42'0 0.0
2018-Oct-28 14:29N 41°11' W 008°42'0 0.0
2018-Oct-28 13:29N 41°11' W 008°42'0 0.0
2018-Oct-28 13:02N 41°11' W 008°42'0 0.0
2018-Oct-28 12:59N 41°11' W 008°42'0 0.0
2018-Oct-28 12:29N 41°11' W 008°42'0 0.0
2018-Oct-28 12:02N 41°11' W 008°42'0 0.0
2018-Oct-28 11:59N 41°11' W 008°42'0 0.0
2018-Oct-28 11:29N 41°11' W 008°42'0 0.0
2018-Oct-28 11:02N 41°11' W 008°42'0 0.0
2018-Oct-28 10:59N 41°11' W 008°42'0 0.0
2018-Oct-28 10:29N 41°11' W 008°42'0 0.0
2018-Oct-28 10:02N 41°11' W 008°42'0 0.0
2018-Oct-28 09:59N 41°11' W 008°42'0 0.0
2018-Oct-28 09:29N 41°11' W 008°42'0 0.0
2018-Oct-28 09:02N 41°11' W 008°42'0 0.0
2018-Oct-28 08:59N 41°11' W 008°42'0 0.0
2018-Oct-28 08:29N 41°11' W 008°42'0 0.0
2018-Oct-28 08:02N 41°11' W 008°42'0 0.0
2018-Oct-28 07:59N 41°11' W 008°42'0 0.0
2018-Oct-28 07:29N 41°11' W 008°42'0 0.1
2018-Oct-28 07:02N 41°11' W 008°42'0 0.2
2018-Oct-28 06:59N 41°11' W 008°42'0 0.1
2018-Oct-28 06:29N 41°11' W 008°42'0 0.0
2018-Oct-28 05:59N 41°11' W 008°42'0 0.0
2018-Oct-28 05:29N 41°11' W 008°42'0 0.0
2018-Oct-28 05:02N 41°11' W 008°42'0 0.0
2018-Oct-28 04:56N 41°11' W 008°42'0 0.0
2018-Oct-28 04:29N 41°11' W 008°42'0 0.0
2018-Oct-28 04:02N 41°11' W 008°42'0 0.0
2018-Oct-28 03:59N 41°11' W 008°42'0 0.0
2018-Oct-28 03:29N 41°11' W 008°42'0 0.0
2018-Oct-28 03:02N 41°11' W 008°42'0 0.0
2018-Oct-28 02:59N 41°11' W 008°42'0 0.0
2018-Oct-28 02:29N 41°11' W 008°42'0 0.0
2018-Oct-28 02:02N 41°11' W 008°42'0 0.0
2018-Oct-28 01:59N 41°11' W 008°42'0 0.0
2018-Oct-28 01:29N 41°11' W 008°42'0 0.0
2018-Oct-28 01:02N 41°11' W 008°42'0 0.0
2018-Oct-28 00:59N 41°11' W 008°42'0 0.0
2018-Oct-28 00:29N 41°11' W 008°42'0 0.0
2018-Oct-28 00:02N 41°11' W 008°42'0 0.0
2018-Oct-27 23:59N 41°11' W 008°42'0 0.0
2018-Oct-27 23:29N 41°11' W 008°42'0 0.0
2018-Oct-27 23:02N 41°11' W 008°42'0 0.0
2018-Oct-27 22:59N 41°11' W 008°42'0 0.0
2018-Oct-27 22:29N 41°11' W 008°42'0 0.0
2018-Oct-27 22:02N 41°11' W 008°42'0 0.0
2018-Oct-27 21:59N 41°11' W 008°42'0 0.0
2018-Oct-27 21:29N 41°11' W 008°42'0 0.0
2018-Oct-27 21:02N 41°11' W 008°42'0 0.0
2018-Oct-27 20:59N 41°11' W 008°42'0 0.0
2018-Oct-27 20:29N 41°11' W 008°42'0 0.0
2018-Oct-27 20:02N 41°11' W 008°42'0 0.1
2018-Oct-27 19:59N 41°11' W 008°42'0 0.0
2018-Oct-27 19:29N 41°11' W 008°42'0 0.0
2018-Oct-27 19:02N 41°11' W 008°42'0 0.0
2018-Oct-27 18:59N 41°11' W 008°42'0 0.0
2018-Oct-27 18:29N 41°11' W 008°42'0 0.0
2018-Oct-27 18:02N 41°11' W 008°42'0 0.0
2018-Oct-27 17:59N 41°11' W 008°42'0 0.0
2018-Oct-27 17:29N 41°11' W 008°42'0 0.0
2018-Oct-27 17:02N 41°11' W 008°42'0 0.0
2018-Oct-27 16:56N 41°11' W 008°42'0 0.0
2018-Oct-27 16:29N 41°11' W 008°42'0 0.0
2018-Oct-27 16:02N 41°11' W 008°42'0 0.0
2018-Oct-27 15:59N 41°11' W 008°42'0 0.0
2018-Oct-27 15:29N 41°11' W 008°42'0 0.0
2018-Oct-27 14:59N 41°11' W 008°42'0 0.0
2018-Oct-27 14:02N 41°11' W 008°42'0 0.0
2018-Oct-27 13:59N 41°11' W 008°42'0 0.0
2018-Oct-27 13:29N 41°11' W 008°42'0 0.0
2018-Oct-27 13:02N 41°11' W 008°42'0 0.0
2018-Oct-27 12:59N 41°11' W 008°42'0 0.0
2018-Oct-27 12:29N 41°11' W 008°42'0 0.0
2018-Oct-27 12:02N 41°11' W 008°42'0 0.0
2018-Oct-27 11:59N 41°11' W 008°42'0 0.0
2018-Oct-27 11:29N 41°11' W 008°42'0 0.0
2018-Oct-27 11:02N 41°11' W 008°42'0 0.0
2018-Oct-27 10:56N 41°11' W 008°42'0 0.0
2018-Oct-27 10:29N 41°11' W 008°42'0 0.0
2018-Oct-27 10:02N 41°11' W 008°42'0 0.0
2018-Oct-27 09:59N 41°11' W 008°42'0 0.0
2018-Oct-27 09:29N 41°11' W 008°42'0 0.0
2018-Oct-27 09:02N 41°11' W 008°42'0 0.0
2018-Oct-27 08:59N 41°11' W 008°42'0 0.0
2018-Oct-27 08:29N 41°11' W 008°42'0 0.0
2018-Oct-27 07:59N 41°11' W 008°42'0 0.0
2018-Oct-27 07:29N 41°11' W 008°42'0 0.0
2018-Oct-27 07:02N 41°11' W 008°42'0 0.4
2018-Oct-27 06:59N 41°11' W 008°42'0 0.0
2018-Oct-27 06:29N 41°11' W 008°42'0 0.0
2018-Oct-27 06:02N 41°11' W 008°42'0 0.0
2018-Oct-27 05:59N 41°11' W 008°42'0 0.0
2018-Oct-27 05:29N 41°11' W 008°42'0 0.0
2018-Oct-27 05:02N 41°11' W 008°42'0 0.0
2018-Oct-27 04:59N 41°11' W 008°42'0 0.0
2018-Oct-27 04:29N 41°11' W 008°42'0 0.0
2018-Oct-27 04:02N 41°11' W 008°42'0 0.0
2018-Oct-27 03:59N 41°11' W 008°42'0 0.0
2018-Oct-27 03:29N 41°11' W 008°42'0 0.0
2018-Oct-27 03:02N 41°11' W 008°42'0 0.0
2018-Oct-27 02:59N 41°11' W 008°42'0 0.0
2018-Oct-27 02:29N 41°11' W 008°42'0 0.0
2018-Oct-27 02:02N 41°11' W 008°42'0 0.1
2018-Oct-27 01:59N 41°11' W 008°42'0 0.0
2018-Oct-27 01:29N 41°11' W 008°42'0 0.0
2018-Oct-27 01:02N 41°11' W 008°42'0 0.0
2018-Oct-27 00:59N 41°11' W 008°42'0 0.0
2018-Oct-27 00:29N 41°11' W 008°42'0 0.0
2018-Oct-27 00:02N 41°11' W 008°42'0 0.0
2018-Oct-26 23:59N 41°11' W 008°42'0 0.0
2018-Oct-26 23:29N 41°11' W 008°42'0 0.0
2018-Oct-26 23:02N 41°11' W 008°42'0 0.0
2018-Oct-26 22:59N 41°11' W 008°42'0 0.0
2018-Oct-26 22:29N 41°11' W 008°42'0 0.0
2018-Oct-26 22:02N 41°11' W 008°42'0 0.0
2018-Oct-26 21:59N 41°11' W 008°42'0 0.0
2018-Oct-26 21:29N 41°11' W 008°42'0 0.0
2018-Oct-26 21:02N 41°11' W 008°42'0 0.1
2018-Oct-26 20:56N 41°11' W 008°42'0 0.0
2018-Oct-26 20:29N 41°11' W 008°42'0 0.0
2018-Oct-26 20:03N 41°11' W 008°42'0 0.0
2018-Oct-26 20:00N 41°11' W 008°42'0 0.0
2018-Oct-26 19:30N 41°11' W 008°42'1 3.1
2018-Oct-26 19:03N 41°10' W 008°42'0 5.4
2018-Oct-26 19:00N 41°10' W 008°42'2 3.9
2018-Oct-26 18:30N 41°09' W 008°45'3 6.5
2018-Oct-26 18:03N 41°09' W 008°49'0 7.1
2018-Oct-26 18:00N 41°09' W 008°49'28 1.6
2018-Oct-26 01:12N 40°44' W 009°04'1 8.4
2018-Oct-26 01:03N 40°44' W 009°05'0 1.3
2018-Oct-26 00:50N 40°44' W 009°06'4 5.6
2018-Oct-26 00:06N 40°44' W 009°11'0 7.4
2018-Oct-26 00:03N 40°44' W 009°11'0 8.4
2018-Oct-26 00:00N 40°44' W 009°12'3 6.3
2018-Oct-25 23:30N 40°44' W 009°16'2 5.1
2018-Oct-25 23:03N 40°42' W 009°18'1 8.4
2018-Oct-25 22:58N 40°41' W 009°18'3 4.6
2018-Oct-25 22:20N 40°39' W 009°20'2 4.2
2018-Oct-25 21:48N 40°39' W 009°17'2 8.1
2018-Oct-25 21:30N 40°39' W 009°13'1 3.3
2018-Oct-25 21:03N 40°39' W 009°12'1 8.1
2018-Oct-25 20:54N 40°39' W 009°10'3 6.3
2018-Oct-25 20:30N 40°39' W 009°07'2 5.6
2018-Oct-25 20:03N 40°39' W 009°03'0 8.4
2018-Oct-25 20:00N 40°39' W 009°03'2 3.5
2018-Oct-25 19:30N 40°39' W 009°00'4 8.3
2018-Oct-25 19:03N 40°39' W 008°56'0 8.4
2018-Oct-25 19:00N 40°39' W 008°55'4 8.2
2018-Oct-25 18:29N 40°39' W 008°49'1 2.5
2018-Oct-25 18:03N 40°39' W 008°48'0 2.2
2018-Oct-25 18:00N 40°39' W 008°48'3 6.5
2018-Oct-25 17:30N 40°41' W 008°52'3 7.2
2018-Oct-25 17:03N 40°44' W 008°54'0 6.9
2018-Oct-25 17:00N 40°44' W 008°55'1 1.8
2018-Oct-25 16:29N 40°43' W 008°56'2 5.6
2018-Oct-25 16:03N 40°40' W 008°56'0 7.9
2018-Oct-25 16:00N 40°40' W 008°56'1 2.8
2018-Oct-25 15:30N 40°39' W 008°56'3 7.3
2018-Oct-25 15:03N 40°35' W 008°57'0 8.1
2018-Oct-25 15:00N 40°35' W 008°57'2 3.7
2018-Oct-25 14:30N 40°33' W 008°58'4 5.4
2018-Oct-25 13:51N 40°33' W 009°02'2 5.3
2018-Oct-25 13:29N 40°33' W 009°05'2 5.1
2018-Oct-25 13:03N 40°33' W 009°08'0 4.6
2018-Oct-25 13:00N 40°33' W 009°08'4 8.0
2018-Oct-25 12:30N 40°33' W 009°13'2 3.6
2018-Oct-25 12:03N 40°33' W 009°16'0 8.5
2018-Oct-25 12:00N 40°33' W 009°16'4 8.1
2018-Oct-25 11:30N 40°33' W 009°21'1 3.1
2018-Oct-25 11:03N 40°32' W 009°22'0 8.1
2018-Oct-25 11:00N 40°32' W 009°23'4 5.9
2018-Oct-25 10:15N 40°28' W 009°24'1 3.7
2018-Oct-25 10:03N 40°27' W 009°24'0 8.3
2018-Oct-25 10:00N 40°27' W 009°23'  
Track history (hours):
 
Tides and Currents Weather Stations Pressure Air Temp Water Temp Dewpoint Dewpoint Depression Visibility Wind Speed Wind Dir Waves Ship Positions

Oceanographic research ship Almirante Gago Coutinho (Portugal)

Detailed information on ship capabilities available from University of Delaware's Ocean Information Center.

Last reported at 2018-Nov-04 09:32 UTC. Time now 2018-Dec-12 02:36 UTC.
Position N 38°40' W 009°09'.
Warning: this ship's position is 37 days out of date.

Length 69 m; draft 5.9 m.

Type: Military. MMSI: 263145000.

Date/timePositionNaut miles runAvg speedWind from/ knotsBaromVisibWave heightAir tempDewpointWater temp
2018-Nov-04 09:32N 38°40' W 009°09'0 0.0
2018-Nov-04 09:30N 38°40' W 009°09'0 0.0
2018-Nov-04 09:03N 38°40' W 009°09'0 0.0
2018-Nov-04 09:00N 38°40' W 009°09'0 0.0
2018-Nov-04 08:30N 38°40' W 009°09'0 0.0
2018-Nov-04 08:03N 38°40' W 009°09'0 0.0
2018-Nov-04 08:00N 38°40' W 009°09'0 0.0
2018-Nov-04 07:30N 38°40' W 009°09'0 0.0
2018-Nov-04 07:03N 38°40' W 009°09'0 0.0
2018-Nov-04 07:00N 38°40' W 009°09'0 0.0
2018-Nov-04 06:30N 38°40' W 009°09'0 0.0
2018-Nov-04 06:03N 38°40' W 009°09'0 0.0
2018-Nov-04 06:00N 38°40' W 009°09'0 0.0
2018-Nov-04 05:30N 38°40' W 009°09'0 0.0
2018-Nov-04 05:03N 38°40' W 009°09'0 0.0
2018-Nov-04 05:00N 38°40' W 009°09'0 0.0
2018-Nov-04 04:30N 38°40' W 009°09'0 0.0
2018-Nov-04 04:03N 38°40' W 009°09'0 0.0
2018-Nov-04 04:00N 38°40' W 009°09'0 0.0
2018-Nov-04 03:30N 38°40' W 009°09'0 0.0
2018-Nov-04 03:03N 38°40' W 009°09'0 0.0
2018-Nov-04 03:00N 38°40' W 009°09'0 0.0
2018-Nov-04 02:30N 38°40' W 009°09'0 0.0
2018-Nov-04 02:03N 38°40' W 009°09'0 0.0
2018-Nov-04 02:00N 38°40' W 009°09'0 0.0
2018-Nov-04 01:30N 38°40' W 009°09'0 0.0
2018-Nov-04 01:03N 38°40' W 009°09'0 0.0
2018-Nov-04 01:00N 38°40' W 009°09'0 0.0
2018-Nov-04 00:30N 38°40' W 009°09'0 0.0
2018-Nov-04 00:03N 38°40' W 009°09'0 0.0
2018-Nov-04 00:00N 38°40' W 009°09'0 0.0
2018-Nov-03 23:30N 38°40' W 009°09'0 0.0
2018-Nov-03 23:03N 38°40' W 009°09'0 0.0
2018-Nov-03 23:00N 38°40' W 009°09'0 0.0
2018-Nov-03 22:30N 38°40' W 009°09'0 0.0
2018-Nov-03 20:30N 38°40' W 009°09'0 0.0
2018-Nov-02 11:06N 38°40' W 009°09'0 0.0
2018-Nov-02 11:03N 38°40' W 009°09'0 0.0
2018-Nov-02 11:00N 38°40' W 009°09'0 0.4
2018-Nov-02 10:30N 38°40' W 009°09'0 0.5
2018-Nov-02 10:04N 38°40' W 009°09'0 0.0
2018-Nov-02 10:01N 38°40' W 009°09'0 0.0
2018-Nov-02 09:31N 38°40' W 009°09'  
2018-Oct-30 08:18N 38°40' W 009°09'0 0.0
2018-Oct-30 08:03N 38°40' W 009°09'0 0.1
2018-Oct-30 08:00N 38°40' W 009°09'0 0.9
2018-Oct-30 07:30N 38°40' W 009°08'1 2.7
2018-Oct-30 07:03N 38°42' W 009°09'0 6.3
2018-Oct-30 07:00N 38°42' W 009°09'4 7.7
2018-Oct-30 06:29N 38°41' W 009°14'3 8.0
2018-Oct-30 06:03N 38°40' W 009°19'0 8.9
2018-Oct-30 06:00N 38°40' W 009°19'4 7.9
2018-Oct-30 05:30N 38°37' W 009°22'3 5.8
2018-Oct-30 05:04N 38°35' W 009°25'0 5.3
2018-Oct-30 05:00N 38°36' W 009°25'2 4.6
2018-Oct-30 04:31N 38°38' W 009°25'1 3.1
2018-Oct-30 04:03N 38°39' W 009°25'0 1.3
2018-Oct-30 04:00N 38°39' W 009°25'1 1.3
2018-Oct-30 03:30N 38°40' W 009°25'1 1.6
2018-Oct-30 03:03N 38°39' W 009°25'0 2.7
2018-Oct-30 03:01N 38°39' W 009°25'0 0.5
2018-Oct-30 02:31N 38°39' W 009°25'1 1.3
2018-Oct-30 02:04N 38°40' W 009°25'0 3.7
2018-Oct-30 02:01N 38°40' W 009°25'1 1.0
2018-Oct-30 01:30N 38°39' W 009°25'1 1.7
2018-Oct-30 01:04N 38°40' W 009°25'0 1.4
2018-Oct-30 01:00N 38°40' W 009°25'1 1.1
2018-Oct-30 00:30N 38°40' W 009°25'1 1.3
2018-Oct-30 00:04N 38°39' W 009°25'0 3.0
2018-Oct-30 00:01N 38°39' W 009°25'2 4.3
2018-Oct-29 23:30N 38°39' W 009°28'2 5.2
2018-Oct-29 23:03N 38°41' W 009°30'0 5.9
2018-Oct-29 23:00N 38°41' W 009°31'3 5.6
2018-Oct-29 22:30N 38°43' W 009°33'3 6.1
2018-Oct-29 22:03N 38°46' W 009°33'0 6.8
2018-Oct-29 22:01N 38°46' W 009°33'3 6.9
2018-Oct-29 21:31N 38°50' W 009°34'3 6.8
2018-Oct-29 21:03N 38°53' W 009°34'0 6.6
2018-Oct-29 21:00N 38°53' W 009°34'3 6.7
2018-Oct-29 20:30N 38°56' W 009°35'3 6.5
2018-Oct-29 20:04N 38°59' W 009°35'0 6.8
2018-Oct-29 20:00N 38°60' W 009°35'3 6.4
2018-Oct-29 19:30N 39°03' W 009°35'3 6.3
2018-Oct-29 19:04N 39°06' W 009°35'0 6.1
2018-Oct-29 19:01N 39°06' W 009°35'3 6.0
2018-Oct-29 18:30N 39°09' W 009°36'3 6.0
2018-Oct-29 18:04N 39°12' W 009°36'0 6.2
2018-Oct-29 18:01N 39°12' W 009°36'3 6.5
2018-Oct-29 17:30N 39°15' W 009°36'3 6.5
2018-Oct-29 17:04N 39°18' W 009°36'0 6.6
2018-Oct-29 17:00N 39°18' W 009°36'3 6.8
2018-Oct-29 16:30N 39°22' W 009°36'3 6.9
2018-Oct-29 16:03N 39°25' W 009°36'0 6.8
2018-Oct-29 16:00N 39°25' W 009°36'3 6.1
2018-Oct-29 15:28N 39°29' W 009°36'1 1.2
2018-Oct-29 14:59N 39°29' W 009°36'1 1.7
2018-Oct-29 14:29N 39°30' W 009°36'1 0.5
2018-Oct-29 11:51N 39°29' W 009°38'1 3.4
2018-Oct-29 11:29N 39°31' W 009°38'105 6.1
2018-Oct-28 18:09N 41°07' W 008°44'1 7.4
2018-Oct-28 18:03N 41°08' W 008°43'0 7.4
2018-Oct-28 18:00N 41°08' W 008°43'3 6.1
2018-Oct-28 17:30N 41°11' W 008°42'0 0.8
2018-Oct-28 17:02N 41°11' W 008°42'0 0.0
2018-Oct-28 16:59N 41°11' W 008°42'0 0.0
2018-Oct-28 16:29N 41°11' W 008°42'0 0.0
2018-Oct-28 16:02N 41°11' W 008°42'0 0.0
2018-Oct-28 15:59N 41°11' W 008°42'0 0.0
2018-Oct-28 15:29N 41°11' W 008°42'0 0.0
2018-Oct-28 15:02N 41°11' W 008°42'0 0.0
2018-Oct-28 14:59N 41°11' W 008°42'0 0.0
2018-Oct-28 14:29N 41°11' W 008°42'0 0.0
2018-Oct-28 13:29N 41°11' W 008°42'0 0.0
2018-Oct-28 13:02N 41°11' W 008°42'0 0.0
2018-Oct-28 12:59N 41°11' W 008°42'0 0.0
2018-Oct-28 12:29N 41°11' W 008°42'0 0.0
2018-Oct-28 12:02N 41°11' W 008°42'0 0.0
2018-Oct-28 11:59N 41°11' W 008°42'0 0.0
2018-Oct-28 11:29N 41°11' W 008°42'0 0.0
2018-Oct-28 11:02N 41°11' W 008°42'0 0.0
2018-Oct-28 10:59N 41°11' W 008°42'0 0.0
2018-Oct-28 10:29N 41°11' W 008°42'0 0.0
2018-Oct-28 10:02N 41°11' W 008°42'0 0.0
2018-Oct-28 09:59N 41°11' W 008°42'0 0.0
2018-Oct-28 09:29N 41°11' W 008°42'0 0.0
2018-Oct-28 09:02N 41°11' W 008°42'0 0.0
2018-Oct-28 08:59N 41°11' W 008°42'0 0.0
2018-Oct-28 08:29N 41°11' W 008°42'0 0.0
2018-Oct-28 08:02N 41°11' W 008°42'0 0.0
2018-Oct-28 07:59N 41°11' W 008°42'0 0.0
2018-Oct-28 07:29N 41°11' W 008°42'0 0.1
2018-Oct-28 07:02N 41°11' W 008°42'0 0.2
2018-Oct-28 06:59N 41°11' W 008°42'0 0.1
2018-Oct-28 06:29N 41°11' W 008°42'0 0.0
2018-Oct-28 05:59N 41°11' W 008°42'0 0.0
2018-Oct-28 05:29N 41°11' W 008°42'0 0.0
2018-Oct-28 05:02N 41°11' W 008°42'0 0.0
2018-Oct-28 04:56N 41°11' W 008°42'0 0.0
2018-Oct-28 04:29N 41°11' W 008°42'0 0.0
2018-Oct-28 04:02N 41°11' W 008°42'0 0.0
2018-Oct-28 03:59N 41°11' W 008°42'0 0.0
2018-Oct-28 03:29N 41°11' W 008°42'0 0.0
2018-Oct-28 03:02N 41°11' W 008°42'0 0.0
2018-Oct-28 02:59N 41°11' W 008°42'0 0.0
2018-Oct-28 02:29N 41°11' W 008°42'0 0.0
2018-Oct-28 02:02N 41°11' W 008°42'0 0.0
2018-Oct-28 01:59N 41°11' W 008°42'0 0.0
2018-Oct-28 01:29N 41°11' W 008°42'0 0.0
2018-Oct-28 01:02N 41°11' W 008°42'0 0.0
2018-Oct-28 00:59N 41°11' W 008°42'0 0.0
2018-Oct-28 00:29N 41°11' W 008°42'0 0.0
2018-Oct-28 00:02N 41°11' W 008°42'0 0.0
2018-Oct-27 23:59N 41°11' W 008°42'0 0.0
2018-Oct-27 23:29N 41°11' W 008°42'0 0.0
2018-Oct-27 23:02N 41°11' W 008°42'0 0.0
2018-Oct-27 22:59N 41°11' W 008°42'0 0.0
2018-Oct-27 22:29N 41°11' W 008°42'0 0.0
2018-Oct-27 22:02N 41°11' W 008°42'0 0.0
2018-Oct-27 21:59N 41°11' W 008°42'0 0.0
2018-Oct-27 21:29N 41°11' W 008°42'0 0.0
2018-Oct-27 21:02N 41°11' W 008°42'0 0.0
2018-Oct-27 20:59N 41°11' W 008°42'0 0.0
2018-Oct-27 20:29N 41°11' W 008°42'0 0.0
2018-Oct-27 20:02N 41°11' W 008°42'0 0.1
2018-Oct-27 19:59N 41°11' W 008°42'0 0.0
2018-Oct-27 19:29N 41°11' W 008°42'0 0.0
2018-Oct-27 19:02N 41°11' W 008°42'0 0.0
2018-Oct-27 18:59N 41°11' W 008°42'0 0.0
2018-Oct-27 18:29N 41°11' W 008°42'0 0.0
2018-Oct-27 18:02N 41°11' W 008°42'0 0.0
2018-Oct-27 17:59N 41°11' W 008°42'0 0.0
2018-Oct-27 17:29N 41°11' W 008°42'0 0.0
2018-Oct-27 17:02N 41°11' W 008°42'0 0.0
2018-Oct-27 16:56N 41°11' W 008°42'0 0.0
2018-Oct-27 16:29N 41°11' W 008°42'0 0.0
2018-Oct-27 16:02N 41°11' W 008°42'0 0.0
2018-Oct-27 15:59N 41°11' W 008°42'0 0.0
2018-Oct-27 15:29N 41°11' W 008°42'0 0.0
2018-Oct-27 14:59N 41°11' W 008°42'0 0.0
2018-Oct-27 14:02N 41°11' W 008°42'0 0.0
2018-Oct-27 13:59N 41°11' W 008°42'0 0.0
2018-Oct-27 13:29N 41°11' W 008°42'0 0.0
2018-Oct-27 13:02N 41°11' W 008°42'0 0.0
2018-Oct-27 12:59N 41°11' W 008°42'0 0.0
2018-Oct-27 12:29N 41°11' W 008°42'0 0.0
2018-Oct-27 12:02N 41°11' W 008°42'0 0.0
2018-Oct-27 11:59N 41°11' W 008°42'0 0.0
2018-Oct-27 11:29N 41°11' W 008°42'0 0.0
2018-Oct-27 11:02N 41°11' W 008°42'0 0.0
2018-Oct-27 10:56N 41°11' W 008°42'0 0.0
2018-Oct-27 10:29N 41°11' W 008°42'0 0.0
2018-Oct-27 10:02N 41°11' W 008°42'0 0.0
2018-Oct-27 09:59N 41°11' W 008°42'0 0.0
2018-Oct-27 09:29N 41°11' W 008°42'0 0.0
2018-Oct-27 09:02N 41°11' W 008°42'0 0.0
2018-Oct-27 08:59N 41°11' W 008°42'0 0.0
2018-Oct-27 08:29N 41°11' W 008°42'0 0.0
2018-Oct-27 07:59N 41°11' W 008°42'0 0.0
2018-Oct-27 07:29N 41°11' W 008°42'0 0.0
2018-Oct-27 07:02N 41°11' W 008°42'0 0.4
2018-Oct-27 06:59N 41°11' W 008°42'0 0.0
2018-Oct-27 06:29N 41°11' W 008°42'0 0.0
2018-Oct-27 06:02N 41°11' W 008°42'0 0.0
2018-Oct-27 05:59N 41°11' W 008°42'0 0.0
2018-Oct-27 05:29N 41°11' W 008°42'0 0.0
2018-Oct-27 05:02N 41°11' W 008°42'0 0.0
2018-Oct-27 04:59N 41°11' W 008°42'0 0.0
2018-Oct-27 04:29N 41°11' W 008°42'0 0.0
2018-Oct-27 04:02N 41°11' W 008°42'0 0.0
2018-Oct-27 03:59N 41°11' W 008°42'0 0.0
2018-Oct-27 03:29N 41°11' W 008°42'0 0.0
2018-Oct-27 03:02N 41°11' W 008°42'0 0.0
2018-Oct-27 02:59N 41°11' W 008°42'0 0.0
2018-Oct-27 02:29N 41°11' W 008°42'0 0.0
2018-Oct-27 02:02N 41°11' W 008°42'0 0.1
2018-Oct-27 01:59N 41°11' W 008°42'0 0.0
2018-Oct-27 01:29N 41°11' W 008°42'0 0.0
2018-Oct-27 01:02N 41°11' W 008°42'0 0.0
2018-Oct-27 00:59N 41°11' W 008°42'0 0.0
2018-Oct-27 00:29N 41°11' W 008°42'0 0.0
2018-Oct-27 00:02N 41°11' W 008°42'0 0.0
2018-Oct-26 23:59N 41°11' W 008°42'0 0.0
2018-Oct-26 23:29N 41°11' W 008°42'0 0.0
2018-Oct-26 23:02N 41°11' W 008°42'0 0.0
2018-Oct-26 22:59N 41°11' W 008°42'0 0.0
2018-Oct-26 22:29N 41°11' W 008°42'0 0.0
2018-Oct-26 22:02N 41°11' W 008°42'0 0.0
2018-Oct-26 21:59N 41°11' W 008°42'0 0.0
2018-Oct-26 21:29N 41°11' W 008°42'0 0.0
2018-Oct-26 21:02N 41°11' W 008°42'0 0.1
2018-Oct-26 20:56N 41°11' W 008°42'0 0.0
2018-Oct-26 20:29N 41°11' W 008°42'0 0.0
2018-Oct-26 20:03N 41°11' W 008°42'0 0.0
2018-Oct-26 20:00N 41°11' W 008°42'0 0.0
2018-Oct-26 19:30N 41°11' W 008°42'1 3.1
2018-Oct-26 19:03N 41°10' W 008°42'0 5.4
2018-Oct-26 19:00N 41°10' W 008°42'2 3.9
2018-Oct-26 18:30N 41°09' W 008°45'3 6.5
2018-Oct-26 18:03N 41°09' W 008°49'0 7.1
2018-Oct-26 18:00N 41°09' W 008°49'28 1.6
2018-Oct-26 01:12N 40°44' W 009°04'1 8.4
2018-Oct-26 01:03N 40°44' W 009°05'0 1.3
2018-Oct-26 00:50N 40°44' W 009°06'4 5.6
2018-Oct-26 00:06N 40°44' W 009°11'0 7.4
2018-Oct-26 00:03N 40°44' W 009°11'0 8.4
2018-Oct-26 00:00N 40°44' W 009°12'3 6.3
2018-Oct-25 23:30N 40°44' W 009°16'2 5.1
2018-Oct-25 23:03N 40°42' W 009°18'1 8.4
2018-Oct-25 22:58N 40°41' W 009°18'3 4.6
2018-Oct-25 22:20N 40°39' W 009°20'2 4.2
2018-Oct-25 21:48N 40°39' W 009°17'2 8.1
2018-Oct-25 21:30N 40°39' W 009°13'1 3.3
2018-Oct-25 21:03N 40°39' W 009°12'1 8.1
2018-Oct-25 20:54N 40°39' W 009°10'3 6.3
2018-Oct-25 20:30N 40°39' W 009°07'2 5.6
2018-Oct-25 20:03N 40°39' W 009°03'0 8.4
2018-Oct-25 20:00N 40°39' W 009°03'2 3.5
2018-Oct-25 19:30N 40°39' W 009°00'4 8.3
2018-Oct-25 19:03N 40°39' W 008°56'0 8.4
2018-Oct-25 19:00N 40°39' W 008°55'4 8.2
2018-Oct-25 18:29N 40°39' W 008°49'1 2.5
2018-Oct-25 18:03N 40°39' W 008°48'0 2.2
2018-Oct-25 18:00N 40°39' W 008°48'3 6.5
2018-Oct-25 17:30N 40°41' W 008°52'3 7.2
2018-Oct-25 17:03N 40°44' W 008°54'0 6.9
2018-Oct-25 17:00N 40°44' W 008°55'1 1.8
2018-Oct-25 16:29N 40°43' W 008°56'2 5.6
2018-Oct-25 16:03N 40°40' W 008°56'0 7.9
2018-Oct-25 16:00N 40°40' W 008°56'1 2.8
2018-Oct-25 15:30N 40°39' W 008°56'3 7.3
2018-Oct-25 15:03N 40°35' W 008°57'0 8.1
2018-Oct-25 15:00N 40°35' W 008°57'2 3.7
2018-Oct-25 14:30N 40°33' W 008°58'4 5.4
2018-Oct-25 13:51N 40°33' W 009°02'2 5.3
2018-Oct-25 13:29N 40°33' W 009°05'2 5.1
2018-Oct-25 13:03N 40°33' W 009°08'0 4.6
2018-Oct-25 13:00N 40°33' W 009°08'4 8.0
2018-Oct-25 12:30N 40°33' W 009°13'2 3.6
2018-Oct-25 12:03N 40°33' W 009°16'0 8.5
2018-Oct-25 12:00N 40°33' W 009°16'4 8.1
2018-Oct-25 11:30N 40°33' W 009°21'1 3.1
2018-Oct-25 11:03N 40°32' W 009°22'0 8.1
2018-Oct-25 11:00N 40°32' W 009°23'4 5.9
2018-Oct-25 10:15N 40°28' W 009°24'1 3.7
2018-Oct-25 10:03N 40°27' W 009°24'0 8.3
2018-Oct-25 10:00N 40°27' W 009°23'  

Dump ship's entire track history